createdAt,value
2019-03-28T00:01:19.791Z,78.20
2019-03-28T00:03:48.011Z,78.30
2019-03-28T00:06:16.222Z,78.10
2019-03-28T00:08:44.467Z,78.20
2019-03-28T00:11:12.697Z,78.40
2019-03-28T00:13:40.907Z,77.70
2019-03-28T00:16:09.131Z,78.30
2019-03-28T00:18:37.381Z,77.70
2019-03-28T00:21:05.593Z,77.70
2019-03-28T00:23:38.390Z,78.00
2019-03-28T00:26:06.649Z,78.70
2019-03-28T00:28:34.850Z,78.90
2019-03-28T00:31:03.112Z,78.70
2019-03-28T00:33:31.393Z,77.80
2019-03-28T00:35:59.614Z,77.80
2019-03-28T00:38:27.812Z,77.40
2019-03-28T00:40:56.033Z,77.60
2019-03-28T00:43:24.265Z,77.90
2019-03-28T00:45:52.521Z,78.00
2019-03-28T00:48:20.728Z,78.20
2019-03-28T00:50:48.963Z,78.30
2019-03-28T00:53:17.187Z,78.60
2019-03-28T00:55:46.415Z,79.20
2019-03-28T00:58:14.621Z,79.00
2019-03-28T01:00:42.846Z,78.80
2019-03-28T01:03:11.227Z,78.50
2019-03-28T01:05:39.549Z,79.90
2019-03-28T01:08:07.764Z,79.30
2019-03-28T01:10:35.982Z,79.20
2019-03-28T01:13:04.188Z,79.20
2019-03-28T01:15:32.413Z,79.20
2019-03-28T01:18:00.631Z,78.90
2019-03-28T01:20:28.842Z,78.90
2019-03-28T01:22:57.057Z,79.20
2019-03-28T01:25:25.268Z,79.60
2019-03-28T01:27:53.505Z,79.80
2019-03-28T01:30:22.206Z,79.60
2019-03-28T01:32:50.605Z,79.70
2019-03-28T01:35:18.830Z,79.40
2019-03-28T01:37:47.083Z,79.50
2019-03-28T01:40:15.301Z,79.80
2019-03-28T01:42:43.517Z,79.20
2019-03-28T01:45:11.759Z,79.00
2019-03-28T01:47:39.976Z,79.40
2019-03-28T01:50:08.203Z,79.40
2019-03-28T01:52:36.398Z,79.20
2019-03-28T01:55:06.757Z,79.40
2019-03-28T01:57:34.969Z,79.40
2019-03-28T02:00:05.657Z,79.40
2019-03-28T02:02:33.900Z,79.70
2019-03-28T02:05:02.112Z,80.10
2019-03-28T02:07:30.317Z,80.10
2019-03-28T02:09:58.578Z,80.40
2019-03-28T02:12:26.786Z,80.40
2019-03-28T02:14:55.014Z,80.50
2019-03-28T02:17:23.232Z,80.60
2019-03-28T02:19:51.445Z,81.70
2019-03-28T02:22:19.669Z,80.50
2019-03-28T02:24:47.874Z,80.30
2019-03-28T02:27:23.958Z,80.10
2019-03-28T02:29:46.050Z,80.40
2019-03-28T02:32:14.274Z,80.50
2019-03-28T02:34:42.495Z,80.10
2019-03-28T02:37:10.703Z,80.60
2019-03-28T02:39:38.931Z,80.50
2019-03-28T02:42:07.183Z,80.70
2019-03-28T02:44:35.419Z,80.80
2019-03-28T02:47:03.631Z,80.90
2019-03-28T02:49:31.842Z,81.10
2019-03-28T02:52:00.066Z,81.00
2019-03-28T02:54:28.307Z,81.20
2019-03-28T02:56:56.529Z,81.30
2019-03-28T02:59:24.767Z,81.60
2019-03-28T03:01:53.053Z,81.40
2019-03-28T03:04:21.274Z,81.50
2019-03-28T03:06:49.485Z,81.70
2019-03-28T03:09:17.709Z,81.80
2019-03-28T03:11:45.921Z,81.50
2019-03-28T03:14:14.155Z,81.40
2019-03-28T03:16:42.365Z,81.80
2019-03-28T03:19:10.585Z,82.30
2019-03-28T03:21:38.816Z,81.80
2019-03-28T03:24:07.068Z,81.80
2019-03-28T03:26:35.278Z,82.10
2019-03-28T03:29:03.586Z,81.80
2019-03-28T03:31:31.803Z,81.80
2019-03-28T03:34:00.017Z,82.10
2019-03-28T03:36:28.229Z,81.90
2019-03-28T03:38:56.458Z,81.80
2019-03-28T03:41:24.699Z,82.00
2019-03-28T03:43:52.948Z,82.10
2019-03-28T03:46:21.148Z,82.30
2019-03-28T03:48:49.365Z,82.40
2019-03-28T03:51:17.578Z,82.00
2019-03-28T03:53:45.819Z,81.80
2019-03-28T03:56:14.069Z,82.00
2019-03-28T03:58:42.275Z,81.80
2019-03-28T04:01:10.520Z,81.80
2019-03-28T04:03:38.730Z,82.10
2019-03-28T04:06:06.943Z,82.20
2019-03-28T04:08:35.166Z,82.40
2019-03-28T04:11:03.384Z,82.40
2019-03-28T04:13:31.694Z,82.50
2019-03-28T04:15:59.878Z,82.80
2019-03-28T04:18:28.090Z,82.80
2019-03-28T04:20:56.306Z,82.50
2019-03-28T04:23:24.527Z,82.50
2019-03-28T04:25:52.755Z,82.70
2019-03-28T04:28:31.523Z,82.70
2019-03-28T04:30:50.918Z,82.90
2019-03-28T04:33:19.135Z,82.70
2019-03-28T04:35:47.964Z,82.60
2019-03-28T04:38:16.983Z,82.40
2019-03-28T04:40:45.200Z,82.40
2019-03-28T04:43:13.418Z,82.10
2019-03-28T04:45:41.671Z,82.10
2019-03-28T04:48:09.927Z,83.50
2019-03-28T04:50:38.171Z,82.90
2019-03-28T04:53:06.421Z,82.90
2019-03-28T04:55:34.830Z,83.10
2019-03-28T04:58:03.034Z,82.90
2019-03-28T05:00:31.257Z,82.70
2019-03-28T05:02:59.475Z,82.70
2019-03-28T05:05:27.730Z,83.00
2019-03-28T05:07:55.932Z,83.00
2019-03-28T05:10:24.183Z,83.00
2019-03-28T05:12:52.385Z,83.10
2019-03-28T05:15:20.661Z,83.20
2019-03-28T05:17:48.910Z,83.40
2019-03-28T05:20:18.155Z,83.60
2019-03-28T05:22:46.370Z,83.40
2019-03-28T05:25:14.598Z,83.10
2019-03-28T05:27:42.826Z,83.20
2019-03-28T05:30:11.061Z,82.80
2019-03-28T05:32:39.281Z,82.40
2019-03-28T05:35:07.514Z,82.40
2019-03-28T05:37:36.405Z,82.20
2019-03-28T05:40:05.969Z,81.80
2019-03-28T05:42:34.174Z,81.90
2019-03-28T05:45:02.402Z,82.10
2019-03-28T05:47:30.620Z,82.10
2019-03-28T05:49:58.875Z,82.00
2019-03-28T05:52:27.089Z,81.80
2019-03-28T05:54:55.559Z,81.60
2019-03-28T05:57:23.778Z,81.60
2019-03-28T05:59:52.003Z,81.60
2019-03-28T06:02:21.091Z,81.50
2019-03-28T06:04:49.313Z,81.10
2019-03-28T06:07:17.532Z,80.90
2019-03-28T06:09:45.791Z,81.00
2019-03-28T06:12:14.015Z,81.00
2019-03-28T06:14:42.237Z,80.50
2019-03-28T06:17:10.466Z,80.20
2019-03-28T06:19:38.680Z,81.00
2019-03-28T06:22:06.905Z,80.00
2019-03-28T06:24:35.157Z,79.90
2019-03-28T06:27:03.364Z,79.80
2019-03-28T06:29:31.580Z,80.20
2019-03-28T06:31:59.798Z,80.20
2019-03-28T06:34:28.013Z,80.90
2019-03-28T06:36:56.234Z,80.90
2019-03-28T06:39:24.446Z,80.50
2019-03-28T06:41:52.730Z,78.70
2019-03-28T06:44:20.979Z,78.50
2019-03-28T06:46:49.232Z,78.70
2019-03-28T06:49:17.476Z,78.70
2019-03-28T06:51:45.685Z,78.10
2019-03-28T06:54:13.935Z,78.10
2019-03-28T06:56:42.236Z,75.00
2019-03-28T06:59:11.704Z,74.40
2019-03-28T07:01:39.912Z,73.80
2019-03-28T07:04:08.158Z,73.40
2019-03-28T07:06:36.409Z,73.40
2019-03-28T07:09:07.391Z,73.60
2019-03-28T07:11:35.598Z,72.50
2019-03-28T07:14:03.813Z,72.10
2019-03-28T07:16:32.074Z,71.70
2019-03-28T07:19:00.286Z,71.50
2019-03-28T07:21:28.504Z,70.60
2019-03-28T07:23:56.729Z,70.80
2019-03-28T07:26:24.942Z,70.80
2019-03-28T07:28:54.423Z,70.20
2019-03-28T07:31:22.786Z,69.50
2019-03-28T07:33:51.034Z,69.00
2019-03-28T07:36:19.254Z,69.00
2019-03-28T07:38:47.791Z,68.50
2019-03-28T07:41:16.554Z,67.70
2019-03-28T07:43:44.996Z,67.30
2019-03-28T07:46:13.217Z,66.50
2019-03-28T07:48:41.438Z,66.30
2019-03-28T07:51:09.688Z,65.70
2019-03-28T07:53:37.907Z,64.90
2019-03-28T07:56:06.130Z,64.80
2019-03-28T07:58:35.288Z,64.20
2019-03-28T08:01:03.874Z,63.30
2019-03-28T08:03:32.499Z,64.30
2019-03-28T08:06:00.701Z,63.80
2019-03-28T08:08:38.288Z,62.40
2019-03-28T08:10:58.865Z,63.00
2019-03-28T08:13:27.126Z,63.00
2019-03-28T08:15:55.359Z,62.40
2019-03-28T08:18:23.877Z,61.40
2019-03-28T08:20:52.179Z,60.50
2019-03-28T08:23:20.403Z,59.50
2019-03-28T08:25:48.623Z,58.00
2019-03-28T08:28:16.874Z,58.10
2019-03-28T08:30:45.431Z,56.90
2019-03-28T08:33:13.990Z,55.60
2019-03-28T08:35:42.198Z,55.90
2019-03-28T08:38:10.583Z,55.40
2019-03-28T08:40:43.111Z,55.20
2019-03-28T08:43:11.711Z,54.80
2019-03-28T08:45:39.933Z,53.80
2019-03-28T08:48:08.165Z,54.10
2019-03-28T08:50:36.383Z,52.70
2019-03-28T08:53:04.621Z,52.60
2019-03-28T08:55:33.230Z,51.60
2019-03-28T08:58:01.441Z,50.60
2019-03-28T09:00:35.075Z,50.30
2019-03-28T09:02:59.653Z,48.30
2019-03-28T09:05:27.943Z,47.50
2019-03-28T09:07:56.150Z,46.90
2019-03-28T09:10:24.405Z,46.70
2019-03-28T09:12:52.647Z,45.10
2019-03-28T09:15:20.857Z,45.30
2019-03-28T09:17:49.065Z,45.20
2019-03-28T09:20:17.291Z,43.80
2019-03-28T09:22:45.546Z,44.10
2019-03-28T09:25:13.799Z,44.40
2019-03-28T09:27:42.051Z,44.20
2019-03-28T09:30:10.278Z,43.40
2019-03-28T09:32:38.487Z,42.30
2019-03-28T09:35:06.972Z,41.80
2019-03-28T09:37:35.202Z,41.90
2019-03-28T09:40:03.563Z,40.80
2019-03-28T09:42:31.808Z,40.60
2019-03-28T09:45:00.038Z,40.70
2019-03-28T09:47:28.279Z,39.00
2019-03-28T09:49:56.492Z,39.20
2019-03-28T09:52:24.743Z,38.90
2019-03-28T09:54:52.988Z,38.50
2019-03-28T09:57:21.236Z,36.90
2019-03-28T09:59:49.440Z,36.30
2019-03-28T10:02:17.692Z,35.70
2019-03-28T10:04:45.901Z,34.90
2019-03-28T10:07:14.151Z,35.00
2019-03-28T10:09:42.546Z,34.80
2019-03-28T10:12:10.932Z,35.20
2019-03-28T10:14:39.155Z,34.60
2019-03-28T10:17:07.365Z,34.00
2019-03-28T10:19:35.585Z,34.00
2019-03-28T10:22:03.806Z,33.90
2019-03-28T10:24:32.031Z,33.00
2019-03-28T10:27:00.247Z,32.30
2019-03-28T10:29:28.520Z,32.90
2019-03-28T10:31:56.746Z,32.50
2019-03-28T10:34:25.049Z,29.90
2019-03-28T10:36:53.351Z,30.70
2019-03-28T10:39:21.671Z,30.00
2019-03-28T10:41:50.007Z,30.20
2019-03-28T10:44:18.249Z,29.80
2019-03-28T10:46:46.518Z,29.70
2019-03-28T10:49:15.672Z,29.60
2019-03-28T10:51:44.202Z,29.10
2019-03-28T10:54:19.818Z,28.20
2019-03-28T10:56:51.659Z,28.90
2019-03-28T10:59:22.773Z,28.60
2019-03-28T11:01:49.932Z,28.10
2019-03-28T11:04:12.409Z,26.70
2019-03-28T11:06:40.699Z,27.00
2019-03-28T11:09:08.998Z,26.90
2019-03-28T11:11:37.322Z,27.00
2019-03-28T11:14:05.583Z,27.40
2019-03-28T11:16:33.832Z,27.60
2019-03-28T11:19:02.075Z,27.50
2019-03-28T11:21:32.890Z,27.80
2019-03-28T11:24:00.621Z,27.50
2019-03-28T11:26:28.946Z,27.90
2019-03-28T11:29:00.745Z,28.00
2019-03-28T11:31:27.349Z,28.40
2019-03-28T11:33:55.631Z,28.80
2019-03-28T11:36:23.887Z,28.80
2019-03-28T11:38:52.152Z,28.60
2019-03-28T11:41:20.428Z,29.10
2019-03-28T11:43:48.728Z,30.00
2019-03-28T11:46:16.984Z,30.50
2019-03-28T11:48:45.241Z,30.70
2019-03-28T11:51:13.508Z,30.50
2019-03-28T11:53:41.793Z,30.60
2019-03-28T11:56:10.056Z,30.90
2019-03-28T11:58:38.779Z,31.20
2019-03-28T12:01:07.243Z,31.60
2019-03-28T12:03:35.535Z,31.90
2019-03-28T12:06:03.795Z,32.30
2019-03-28T12:08:32.037Z,32.00
2019-03-28T12:11:00.335Z,31.70
2019-03-28T12:13:28.632Z,31.60
2019-03-28T12:15:56.890Z,32.10
2019-03-28T12:18:25.304Z,32.30
2019-03-28T12:20:53.712Z,32.00
2019-03-28T12:23:22.435Z,32.00
2019-03-28T12:25:50.936Z,31.90
2019-03-28T12:28:19.258Z,31.90
2019-03-28T12:30:47.511Z,32.50
2019-03-28T12:33:15.809Z,32.30
2019-03-28T12:35:44.134Z,32.40
2019-03-28T12:38:12.396Z,33.50
2019-03-28T12:40:40.653Z,32.70
2019-03-28T12:43:08.914Z,32.60
2019-03-28T12:45:37.156Z,32.60
2019-03-28T12:48:05.412Z,33.20
2019-03-28T12:50:33.712Z,34.70
2019-03-28T12:53:02.035Z,35.10
2019-03-28T12:55:30.290Z,34.90
2019-03-28T12:57:58.583Z,34.60
2019-03-28T13:00:36.420Z,34.90
2019-03-28T13:03:04.717Z,35.60
2019-03-28T13:05:34.763Z,35.80
2019-03-28T13:08:02.948Z,35.00
2019-03-28T13:10:31.207Z,35.20
2019-03-28T13:12:59.498Z,35.50
2019-03-28T13:15:27.846Z,34.80
2019-03-28T13:17:56.105Z,35.40
2019-03-28T13:20:24.359Z,36.00
2019-03-28T13:22:52.629Z,35.80
2019-03-28T13:25:20.893Z,35.80
2019-03-28T13:27:49.148Z,36.10
2019-03-28T13:30:17.478Z,35.90
2019-03-28T13:32:45.729Z,35.70
2019-03-28T13:35:13.992Z,35.80
2019-03-28T13:37:42.262Z,35.60
2019-03-28T13:40:10.625Z,35.80
2019-03-28T13:42:39.139Z,36.30
2019-03-28T13:45:09.867Z,36.60
2019-03-28T13:47:38.155Z,37.10
2019-03-28T13:50:08.501Z,37.00
2019-03-28T13:52:36.793Z,37.20
2019-03-28T13:55:08.057Z,37.80
2019-03-28T13:57:36.410Z,37.80
2019-03-28T14:00:06.285Z,38.20
2019-03-28T14:02:34.847Z,37.90
2019-03-28T14:05:03.250Z,37.70
2019-03-28T14:07:31.504Z,38.40
2019-03-28T14:09:59.883Z,38.80
2019-03-28T14:12:28.143Z,39.00
2019-03-28T14:14:56.437Z,39.70
2019-03-28T14:17:24.766Z,40.70
2019-03-28T14:19:53.017Z,40.40
2019-03-28T14:22:21.264Z,41.20
2019-03-28T14:24:49.532Z,41.20
2019-03-28T14:27:17.819Z,40.90
2019-03-28T14:29:46.146Z,41.10
2019-03-28T14:32:14.398Z,41.80
2019-03-28T14:34:42.683Z,41.40
2019-03-28T14:37:11.078Z,41.20
2019-03-28T14:39:39.330Z,41.00
2019-03-28T14:42:07.572Z,41.20
2019-03-28T14:44:35.845Z,40.90
2019-03-28T14:47:04.109Z,40.80
2019-03-28T14:49:32.470Z,40.80
2019-03-28T14:52:00.743Z,40.10
2019-03-28T14:54:29.003Z,40.40
2019-03-28T14:56:57.253Z,40.50
2019-03-28T14:59:32.386Z,40.70
2019-03-28T15:01:55.493Z,41.20
2019-03-28T15:04:23.785Z,41.00
2019-03-28T15:06:52.077Z,41.40
2019-03-28T15:09:20.337Z,41.90
2019-03-28T15:11:48.630Z,41.80
2019-03-28T15:14:16.888Z,41.60
2019-03-28T15:16:45.136Z,41.30
2019-03-28T15:19:13.424Z,41.00
2019-03-28T15:21:41.690Z,41.00
2019-03-28T15:24:09.932Z,41.20
2019-03-28T15:26:38.237Z,41.70
2019-03-28T15:29:06.553Z,41.90
2019-03-28T15:31:34.822Z,41.90
2019-03-28T15:34:03.115Z,41.90
2019-03-28T15:36:31.381Z,41.80
2019-03-28T15:38:59.654Z,41.70
2019-03-28T15:41:27.997Z,42.20
2019-03-28T15:43:56.253Z,42.30
2019-03-28T15:46:25.596Z,42.70
2019-03-28T15:48:54.050Z,42.80
2019-03-28T15:51:22.307Z,43.00
2019-03-28T15:53:50.606Z,43.00
2019-03-28T15:56:18.868Z,42.80
2019-03-28T15:58:47.161Z,43.10
2019-03-28T16:01:15.454Z,43.00
2019-03-28T16:03:52.892Z,43.00
2019-03-28T16:06:13.722Z,43.80
2019-03-28T16:08:41.974Z,42.60
2019-03-28T16:11:10.233Z,42.60
2019-03-28T16:13:38.519Z,42.30
2019-03-28T16:16:06.773Z,42.70
2019-03-28T16:18:35.062Z,43.10
2019-03-28T16:21:03.313Z,43.00
2019-03-28T16:23:31.570Z,43.30
2019-03-28T16:25:59.849Z,43.60
2019-03-28T16:28:28.403Z,43.70
2019-03-28T16:30:56.842Z,43.90
2019-03-28T16:33:25.132Z,44.10
2019-03-28T16:35:53.383Z,44.30
2019-03-28T16:38:21.671Z,44.50
2019-03-28T16:40:49.966Z,45.20
2019-03-28T16:43:18.228Z,45.50
2019-03-28T16:45:46.489Z,45.50
2019-03-28T16:48:14.790Z,45.60
2019-03-28T16:50:43.038Z,46.10
2019-03-28T16:53:11.294Z,46.20
2019-03-28T16:55:39.546Z,46.40
2019-03-28T16:58:07.813Z,46.50
2019-03-28T17:00:38.816Z,46.70
2019-03-28T17:03:07.080Z,47.10
2019-03-28T17:05:35.347Z,47.30
2019-03-28T17:08:03.684Z,47.60
2019-03-28T17:10:46.425Z,47.70
2019-03-28T17:13:15.287Z,47.90
2019-03-28T17:15:43.648Z,48.30
2019-03-28T17:18:11.901Z,48.30
2019-03-28T17:20:40.699Z,48.60
2019-03-28T17:23:09.192Z,48.70
2019-03-28T17:25:37.471Z,49.20
2019-03-28T17:28:05.735Z,49.00
2019-03-28T17:30:34.034Z,49.20
2019-03-28T17:33:02.358Z,49.50
2019-03-28T17:35:30.602Z,49.70
2019-03-28T17:37:58.856Z,49.90
2019-03-28T17:40:27.119Z,50.30
2019-03-28T17:42:55.381Z,51.40
2019-03-28T17:45:23.658Z,51.10
2019-03-28T17:47:51.916Z,51.60
2019-03-28T17:50:20.255Z,51.90
2019-03-28T17:52:48.516Z,52.40
2019-03-28T17:55:19.601Z,52.40
2019-03-28T17:57:46.783Z,52.50
2019-03-28T18:00:15.025Z,53.00
2019-03-28T18:02:43.319Z,53.30
2019-03-28T18:05:15.358Z,53.90
2019-03-28T18:07:41.605Z,54.20
2019-03-28T18:10:09.883Z,54.60
2019-03-28T18:12:38.138Z,55.30
2019-03-28T18:15:06.471Z,55.80
2019-03-28T18:17:34.747Z,56.30
2019-03-28T18:20:03.509Z,57.00
2019-03-28T18:22:31.777Z,57.40
2019-03-28T18:25:00.063Z,57.80
2019-03-28T18:27:28.330Z,58.60
2019-03-28T18:29:56.614Z,58.90
2019-03-28T18:32:24.908Z,59.20
2019-03-28T18:35:04.556Z,59.80
2019-03-28T18:37:23.167Z,60.20
2019-03-28T18:39:51.420Z,60.90
2019-03-28T18:42:19.707Z,61.40
2019-03-28T18:44:47.982Z,61.90
2019-03-28T18:47:16.295Z,62.30
2019-03-28T18:49:44.637Z,62.70
2019-03-28T18:52:13.051Z,63.10
2019-03-28T18:54:41.357Z,63.90
2019-03-28T18:57:09.660Z,63.70
2019-03-28T18:59:38.020Z,63.80
2019-03-28T19:02:06.285Z,64.30
2019-03-28T19:04:34.557Z,64.40
2019-03-28T19:07:02.823Z,64.60
2019-03-28T19:09:31.212Z,64.50
2019-03-28T19:11:59.433Z,64.90
2019-03-28T19:14:27.697Z,64.80
2019-03-28T19:16:55.958Z,65.80
2019-03-28T19:19:38.385Z,65.00
2019-03-28T19:21:55.810Z,65.10
2019-03-28T19:24:24.218Z,65.60
2019-03-28T19:26:52.946Z,66.10
2019-03-28T19:29:21.443Z,66.00
2019-03-28T19:31:50.013Z,66.20
2019-03-28T19:34:18.361Z,66.60
2019-03-28T19:36:46.845Z,66.90
2019-03-28T19:39:25.142Z,65.90
2019-03-28T19:41:53.457Z,66.70
2019-03-28T19:44:21.720Z,67.00
2019-03-28T19:46:49.982Z,67.00
2019-03-28T19:49:18.260Z,67.20
2019-03-28T19:51:47.796Z,67.10
2019-03-28T19:54:16.315Z,67.20
2019-03-28T19:56:44.627Z,67.40
2019-03-28T19:59:12.987Z,67.90
2019-03-28T20:01:41.240Z,67.70
2019-03-28T20:04:09.569Z,68.20
2019-03-28T20:06:37.815Z,68.20
2019-03-28T20:09:16.045Z,67.80
2019-03-28T20:11:37.513Z,68.10
2019-03-28T20:14:05.765Z,68.70
2019-03-28T20:16:34.012Z,68.50
2019-03-28T20:19:02.527Z,68.60
2019-03-28T20:21:30.924Z,68.80
2019-03-28T20:23:59.255Z,69.20
2019-03-28T20:26:27.529Z,69.20
2019-03-28T20:28:56.446Z,70.10
2019-03-28T20:31:24.747Z,69.50
2019-03-28T20:33:53.057Z,69.20
2019-03-28T20:36:36.914Z,69.10
2019-03-28T20:39:03.336Z,69.20
2019-03-28T20:41:21.346Z,69.10
2019-03-28T20:43:49.635Z,69.30
2019-03-28T20:46:20.577Z,69.60
2019-03-28T20:48:47.906Z,69.60
2019-03-28T20:51:16.191Z,70.00
2019-03-28T20:53:44.435Z,70.00
2019-03-28T20:56:12.689Z,70.10
2019-03-28T20:58:40.955Z,70.40
2019-03-28T21:01:09.219Z,71.30
2019-03-28T21:03:37.477Z,70.80
2019-03-28T21:06:15.148Z,71.20
2019-03-28T21:08:35.752Z,71.10
2019-03-28T21:11:04.095Z,71.30
2019-03-28T21:13:32.611Z,71.00
2019-03-28T21:16:00.871Z,71.30
2019-03-28T21:18:29.146Z,71.60
2019-03-28T21:20:57.396Z,71.70
2019-03-28T21:23:25.652Z,71.50
2019-03-28T21:25:53.852Z,71.90
2019-03-28T21:28:22.163Z,71.80
2019-03-28T21:30:50.385Z,71.90
2019-03-28T21:33:18.645Z,72.20
2019-03-28T21:35:46.871Z,72.40
2019-03-28T21:38:17.007Z,72.20
2019-03-28T21:40:45.450Z,72.80
2019-03-28T21:43:30.934Z,72.30
2019-03-28T21:45:59.021Z,72.40
2019-03-28T21:48:27.234Z,72.60
2019-03-28T21:50:55.450Z,72.70
2019-03-28T21:53:23.660Z,73.00
2019-03-28T21:55:55.335Z,73.10
2019-03-28T21:58:21.814Z,73.10
2019-03-28T22:00:50.041Z,73.10
2019-03-28T22:03:18.260Z,73.00
2019-03-28T22:05:46.515Z,72.90
2019-03-28T22:08:14.715Z,73.30
2019-03-28T22:10:43.083Z,73.30
2019-03-28T22:13:12.311Z,73.50
2019-03-28T22:15:40.817Z,73.50
2019-03-28T22:18:09.065Z,73.50
2019-03-28T22:20:37.290Z,73.40
2019-03-28T22:23:05.524Z,73.30
2019-03-28T22:25:33.726Z,73.20
2019-03-28T22:28:01.989Z,73.20
2019-03-28T22:30:30.203Z,73.50
2019-03-28T22:32:58.429Z,73.50
2019-03-28T22:35:26.671Z,73.80
2019-03-28T22:37:54.991Z,73.90
2019-03-28T22:40:23.226Z,74.30
2019-03-28T22:42:51.430Z,73.80
2019-03-28T22:45:19.676Z,74.30
2019-03-28T22:47:47.890Z,74.60
2019-03-28T22:50:16.204Z,74.50
2019-03-28T22:52:44.452Z,74.50
2019-03-28T22:55:12.664Z,74.70
2019-03-28T22:57:41.200Z,74.70
2019-03-28T23:00:11.627Z,74.80
2019-03-28T23:02:39.945Z,75.00
2019-03-28T23:05:09.220Z,74.90
2019-03-28T23:07:37.454Z,75.20
2019-03-28T23:10:07.610Z,74.90
2019-03-28T23:12:35.840Z,74.80
2019-03-28T23:15:08.192Z,75.10
2019-03-28T23:17:36.463Z,75.40
2019-03-28T23:20:07.431Z,75.10
2019-03-28T23:22:35.696Z,75.20
2019-03-28T23:25:04.951Z,75.50
2019-03-28T23:27:33.219Z,75.50
2019-03-28T23:30:02.886Z,75.70
2019-03-28T23:32:31.294Z,75.70
2019-03-28T23:34:59.539Z,75.80
2019-03-28T23:37:27.760Z,75.60
2019-03-28T23:39:55.996Z,75.80
2019-03-28T23:42:24.213Z,76.00
2019-03-28T23:44:53.171Z,76.00
2019-03-28T23:47:22.072Z,76.20
2019-03-28T23:49:50.283Z,76.10
2019-03-28T23:52:18.498Z,76.00
2019-03-28T23:54:47.719Z,76.20
2019-03-28T23:57:15.935Z,76.40
2019-03-28T23:59:44.151Z,76.50
